Jaguare, Brazil
Current Conditions -  °F | °C
As of 3:00 PM on Friday 19 Dec 2014 (Local Time) from SBVT Reporting Station
Few Clouds Few Clouds  
Wind Chill: 86°   Ceiling: Unl
Heat Index: 90°   Visibility: 6mi
Dew Point: 70°   Wind: 20mph
Humidity: 58%   Direction: 70°ENE
Pressure: 29.8"   Gusts: NA
Location:  18.91°S, 40.08°W
Report Text: SBVT 191700Z 07017KT 9999 FEW035 30/21 Q1009
Loading
Personal Weather Stations






























Interactive Weather Map New forecast layout! Learn more

10-Day Weather Forecast

Advertisements
Track Severe Weather on mobile